Decoded Metar for LIQW (SARZANA/LUNI in ITALY) (IATA:N/A) | Meteo·Mobile Aviation Weather
aviador You're here:

LIQW Decoded Metar

SARZANA/LUNI in ITALY
Report Time2018-12-10 09:55:00
UTC Time2018-12-10 10:51:03
Flight Rules vfr VFR
Wind350° at 18 Gusting to 30 kt
W.Decomp.*RWY 36: 17.7 kt HW 3.4 kt LCW
W.Rank350° ranks 17
Current wind is above 350° avg. (5.7)
Visibility9999 m
Phenomena:N/A
Clouds:N/A
Expected CloudBase > 10,000 ft AGL from Temp-Dew spread
CeilingNone
Temp15°C (ISA 0)
Dew Point-10°C (17% RH)
AAT5.5°C
QNH1015 hPa
Density Alt20 ft
Elevation33 ft
Report Wrong Elevation
Raw Report
METAR LIQW 100955Z 35018G30KT CAVOK 15/M10 Q1015=

Extra information for LIQW:More info

Metar Taf Metar & Taf Last 4 Metars F.Rules Stats Wind Profile Meteogram Temp Stats Airport Information Weather charts Add Link Nearby VenuesMetar ALERT Operation Metar Decoded Social comments